sensor_id;sensor_type;location;lat;lon;timestamp;P1;durP1;ratioP1;P2;durP2;ratioP2
31262;SDS011;17892;52.080;9.006;2022-08-01T00:00:33;3.80;;;2.45;;
31262;SDS011;17892;52.080;9.006;2022-08-01T00:02:58;3.88;;;2.80;;
31262;SDS011;17892;52.080;9.006;2022-08-01T00:05:24;3.88;;;3.05;;
31262;SDS011;17892;52.080;9.006;2022-08-01T00:07:50;3.03;;;1.88;;
31262;SDS011;17892;52.080;9.006;2022-08-01T00:10:17;3.38;;;2.05;;
31262;SDS011;17892;52.080;9.006;2022-08-01T00:12:43;3.70;;;2.42;;
31262;SDS011;17892;52.080;9.006;2022-08-01T00:15:11;3.35;;;2.40;;
31262;SDS011;17892;52.080;9.006;2022-08-01T00:17:39;2.85;;;2.08;;
31262;SDS011;17892;52.080;9.006;2022-08-01T00:20:06;3.45;;;2.00;;
31262;SDS011;17892;52.080;9.006;2022-08-01T00:22:34;5.03;;;1.83;;
31262;SDS011;17892;52.080;9.006;2022-08-01T00:25:00;4.00;;;1.90;;
31262;SDS011;17892;52.080;9.006;2022-08-01T00:27:28;2.70;;;2.00;;
31262;SDS011;17892;52.080;9.006;2022-08-01T00:29:54;3.08;;;1.73;;
31262;SDS011;17892;52.080;9.006;2022-08-01T00:32:20;2.72;;;1.75;;
31262;SDS011;17892;52.080;9.006;2022-08-01T00:34:45;3.67;;;2.20;;
31262;SDS011;17892;52.080;9.006;2022-08-01T00:37:11;2.03;;;1.60;;
31262;SDS011;17892;52.080;9.006;2022-08-01T00:39:37;3.08;;;2.30;;
31262;SDS011;17892;52.080;9.006;2022-08-01T00:42:06;3.78;;;1.30;;
31262;SDS011;17892;52.080;9.006;2022-08-01T00:44:33;2.53;;;1.52;;
31262;SDS011;17892;52.080;9.006;2022-08-01T00:47:00;3.00;;;1.80;;
31262;SDS011;17892;52.080;9.006;2022-08-01T00:49:26;3.60;;;1.80;;
31262;SDS011;17892;52.080;9.006;2022-08-01T00:51:52;3.22;;;1.60;;
31262;SDS011;17892;52.080;9.006;2022-08-01T00:54:19;2.10;;;1.50;;
31262;SDS011;17892;52.080;9.006;2022-08-01T00:56:45;2.33;;;1.50;;
31262;SDS011;17892;52.080;9.006;2022-08-01T00:59:11;2.80;;;1.88;;
31262;SDS011;17892;52.080;9.006;2022-08-01T01:01:37;2.70;;;1.48;;
31262;SDS011;17892;52.080;9.006;2022-08-01T01:04:03;2.03;;;1.45;;
31262;SDS011;17892;52.080;9.006;2022-08-01T01:06:46;3.85;;;1.85;;
31262;SDS011;17892;52.080;9.006;2022-08-01T01:12:42;3.08;;;1.77;;
31262;SDS011;17892;52.080;9.006;2022-08-01T01:15:22;3.08;;;1.85;;
31262;SDS011;17892;52.080;9.006;2022-08-01T01:18:00;2.95;;;2.05;;
31262;SDS011;17892;52.080;9.006;2022-08-01T01:20:30;5.28;;;2.15;;
31262;SDS011;17892;52.080;9.006;2022-08-01T01:26:04;2.83;;;1.88;;
31262;SDS011;17892;52.080;9.006;2022-08-01T01:29:17;3.47;;;1.85;;
31262;SDS011;17892;52.080;9.006;2022-08-01T01:32:13;4.28;;;2.72;;
31262;SDS011;17892;52.080;9.006;2022-08-01T01:34:45;2.50;;;1.83;;
31262;SDS011;17892;52.080;9.006;2022-08-01T01:37:16;7.10;;;2.10;;
31262;SDS011;17892;52.080;9.006;2022-08-01T01:39:44;4.75;;;2.30;;
31262;SDS011;17892;52.080;9.006;2022-08-01T01:42:13;2.80;;;1.65;;
31262;SDS011;17892;52.080;9.006;2022-08-01T01:44:43;7.53;;;2.33;;
31262;SDS011;17892;52.080;9.006;2022-08-01T01:47:14;2.90;;;1.80;;
31262;SDS011;17892;52.080;9.006;2022-08-01T01:49:43;2.92;;;1.88;;
31262;SDS011;17892;52.080;9.006;2022-08-01T01:52:12;3.38;;;1.52;;
31262;SDS011;17892;52.080;9.006;2022-08-01T01:54:44;3.45;;;1.65;;
31262;SDS011;17892;52.080;9.006;2022-08-01T01:57:13;4.32;;;1.75;;
31262;SDS011;17892;52.080;9.006;2022-08-01T01:59:40;1.85;;;1.15;;
31262;SDS011;17892;52.080;9.006;2022-08-01T02:02:07;1.80;;;1.35;;
31262;SDS011;17892;52.080;9.006;2022-08-01T02:04:35;2.58;;;1.65;;
31262;SDS011;17892;52.080;9.006;2022-08-01T02:07:05;1.38;;;1.15;;
31262;SDS011;17892;52.080;9.006;2022-08-01T02:09:33;3.28;;;1.55;;
31262;SDS011;17892;52.080;9.006;2022-08-01T02:12:02;1.48;;;0.98;;
31262;SDS011;17892;52.080;9.006;2022-08-01T02:14:31;1.80;;;1.40;;
31262;SDS011;17892;52.080;9.006;2022-08-01T02:17:00;1.63;;;1.20;;
31262;SDS011;17892;52.080;9.006;2022-08-01T02:19:28;1.50;;;1.15;;
31262;SDS011;17892;52.080;9.006;2022-08-01T02:21:55;3.38;;;1.70;;
31262;SDS011;17892;52.080;9.006;2022-08-01T02:27:11;4.40;;;1.50;;
31262;SDS011;17892;52.080;9.006;2022-08-01T02:29:42;6.25;;;1.77;;
31262;SDS011;17892;52.080;9.006;2022-08-01T02:32:16;2.92;;;1.67;;
31262;SDS011;17892;52.080;9.006;2022-08-01T02:34:56;2.95;;;1.70;;
31262;SDS011;17892;52.080;9.006;2022-08-01T02:37:26;2.65;;;1.58;;
31262;SDS011;17892;52.080;9.006;2022-08-01T02:39:54;3.60;;;2.20;;
31262;SDS011;17892;52.080;9.006;2022-08-01T02:42:21;5.15;;;1.75;;
31262;SDS011;17892;52.080;9.006;2022-08-01T02:44:48;2.80;;;1.55;;
31262;SDS011;17892;52.080;9.006;2022-08-01T02:47:16;2.25;;;1.60;;
31262;SDS011;17892;52.080;9.006;2022-08-01T02:49:46;2.88;;;1.80;;
31262;SDS011;17892;52.080;9.006;2022-08-01T02:52:14;3.63;;;1.55;;
31262;SDS011;17892;52.080;9.006;2022-08-01T02:54:43;2.65;;;1.63;;
31262;SDS011;17892;52.080;9.006;2022-08-01T02:57:10;2.30;;;1.63;;
31262;SDS011;17892;52.080;9.006;2022-08-01T02:59:39;2.38;;;1.70;;
31262;SDS011;17892;52.080;9.006;2022-08-01T03:02:07;2.70;;;1.27;;
31262;SDS011;17892;52.080;9.006;2022-08-01T03:04:35;7.25;;;1.70;;
31262;SDS011;17892;52.080;9.006;2022-08-01T03:07:04;3.10;;;1.25;;
31262;SDS011;17892;52.080;9.006;2022-08-01T03:09:32;1.30;;;0.90;;
31262;SDS011;17892;52.080;9.006;2022-08-01T03:12:03;1.77;;;1.38;;
31262;SDS011;17892;52.080;9.006;2022-08-01T03:14:44;1.80;;;1.02;;
31262;SDS011;17892;52.080;9.006;2022-08-01T03:17:12;2.25;;;1.30;;
31262;SDS011;17892;52.080;9.006;2022-08-01T03:19:38;1.92;;;1.13;;
31262;SDS011;17892;52.080;9.006;2022-08-01T03:22:08;2.85;;;1.27;;
31262;SDS011;17892;52.080;9.006;2022-08-01T03:24:37;1.98;;;1.25;;
31262;SDS011;17892;52.080;9.006;2022-08-01T03:27:04;2.72;;;1.23;;
31262;SDS011;17892;52.080;9.006;2022-08-01T03:29:32;1.83;;;1.30;;
31262;SDS011;17892;52.080;9.006;2022-08-01T03:31:59;2.05;;;1.20;;
31262;SDS011;17892;52.080;9.006;2022-08-01T03:34:26;2.08;;;1.58;;
31262;SDS011;17892;52.080;9.006;2022-08-01T03:36:56;2.40;;;1.27;;
31262;SDS011;17892;52.080;9.006;2022-08-01T03:39:30;2.22;;;1.42;;
31262;SDS011;17892;52.080;9.006;2022-08-01T03:42:05;3.05;;;1.27;;
31262;SDS011;17892;52.080;9.006;2022-08-01T03:44:41;2.20;;;1.15;;
31262;SDS011;17892;52.080;9.006;2022-08-01T03:47:13;2.17;;;1.25;;
31262;SDS011;17892;52.080;9.006;2022-08-01T03:49:42;2.65;;;1.15;;
31262;SDS011;17892;52.080;9.006;2022-08-01T03:52:10;1.50;;;1.05;;
31262;SDS011;17892;52.080;9.006;2022-08-01T03:54:37;1.98;;;1.13;;
31262;SDS011;17892;52.080;9.006;2022-08-01T03:57:12;2.47;;;1.42;;
31262;SDS011;17892;52.080;9.006;2022-08-01T03:59:39;2.38;;;1.38;;
31262;SDS011;17892;52.080;9.006;2022-08-01T04:02:06;2.85;;;1.40;;
31262;SDS011;17892;52.080;9.006;2022-08-01T04:04:32;3.38;;;1.85;;
31262;SDS011;17892;52.080;9.006;2022-08-01T04:06:58;4.13;;;1.17;;
31262;SDS011;17892;52.080;9.006;2022-08-01T04:09:29;3.80;;;1.38;;
31262;SDS011;17892;52.080;9.006;2022-08-01T04:11:58;2.28;;;1.40;;
31262;SDS011;17892;52.080;9.006;2022-08-01T04:14:26;2.00;;;1.45;;
31262;SDS011;17892;52.080;9.006;2022-08-01T04:16:53;2.03;;;1.65;;
31262;SDS011;17892;52.080;9.006;2022-08-01T04:19:19;2.47;;;1.63;;
31262;SDS011;17892;52.080;9.006;2022-08-01T04:21:45;1.88;;;1.20;;
31262;SDS011;17892;52.080;9.006;2022-08-01T04:24:12;3.30;;;1.85;;
31262;SDS011;17892;52.080;9.006;2022-08-01T04:26:43;2.17;;;1.50;;
31262;SDS011;17892;52.080;9.006;2022-08-01T04:29:10;2.70;;;1.55;;
31262;SDS011;17892;52.080;9.006;2022-08-01T04:31:38;3.03;;;1.70;;
31262;SDS011;17892;52.080;9.006;2022-08-01T04:34:09;2.20;;;1.70;;
31262;SDS011;17892;52.080;9.006;2022-08-01T04:36:39;4.40;;;2.15;;
31262;SDS011;17892;52.080;9.006;2022-08-01T04:39:09;2.45;;;1.83;;
31262;SDS011;17892;52.080;9.006;2022-08-01T04:41:36;2.42;;;1.88;;
31262;SDS011;17892;52.080;9.006;2022-08-01T04:44:04;3.20;;;1.85;;
31262;SDS011;17892;52.080;9.006;2022-08-01T04:46:30;3.92;;;2.13;;
31262;SDS011;17892;52.080;9.006;2022-08-01T04:48:58;2.25;;;1.83;;
31262;SDS011;17892;52.080;9.006;2022-08-01T04:51:25;5.35;;;2.65;;
31262;SDS011;17892;52.080;9.006;2022-08-01T04:53:51;2.17;;;1.45;;
31262;SDS011;17892;52.080;9.006;2022-08-01T04:56:20;2.63;;;1.52;;
31262;SDS011;17892;52.080;9.006;2022-08-01T04:58:46;2.45;;;1.40;;
31262;SDS011;17892;52.080;9.006;2022-08-01T05:01:12;3.05;;;2.13;;
31262;SDS011;17892;52.080;9.006;2022-08-01T05:03:38;1.95;;;1.17;;
31262;SDS011;17892;52.080;9.006;2022-08-01T05:06:05;2.05;;;1.17;;
31262;SDS011;17892;52.080;9.006;2022-08-01T05:08:31;2.08;;;1.20;;
31262;SDS011;17892;52.080;9.006;2022-08-01T05:10:56;5.63;;;1.63;;
31262;SDS011;17892;52.080;9.006;2022-08-01T05:13:22;5.97;;;1.85;;
31262;SDS011;17892;52.080;9.006;2022-08-01T05:15:48;3.08;;;1.50;;
31262;SDS011;17892;52.080;9.006;2022-08-01T05:18:13;2.85;;;1.83;;
31262;SDS011;17892;52.080;9.006;2022-08-01T05:20:39;3.30;;;2.05;;
31262;SDS011;17892;52.080;9.006;2022-08-01T05:23:06;7.38;;;3.35;;
31262;SDS011;17892;52.080;9.006;2022-08-01T05:25:32;4.00;;;1.90;;
31262;SDS011;17892;52.080;9.006;2022-08-01T05:27:58;3.65;;;1.60;;
31262;SDS011;17892;52.080;9.006;2022-08-01T05:30:25;3.63;;;2.13;;
31262;SDS011;17892;52.080;9.006;2022-08-01T05:32:51;2.92;;;1.88;;
31262;SDS011;17892;52.080;9.006;2022-08-01T05:35:16;2.22;;;1.67;;
31262;SDS011;17892;52.080;9.006;2022-08-01T05:37:42;2.95;;;2.25;;
31262;SDS011;17892;52.080;9.006;2022-08-01T05:40:08;3.70;;;1.45;;
31262;SDS011;17892;52.080;9.006;2022-08-01T05:42:35;2.20;;;1.55;;
31262;SDS011;17892;52.080;9.006;2022-08-01T05:45:00;3.65;;;1.80;;
31262;SDS011;17892;52.080;9.006;2022-08-01T05:47:26;3.15;;;1.63;;
31262;SDS011;17892;52.080;9.006;2022-08-01T05:49:51;3.13;;;1.70;;
31262;SDS011;17892;52.080;9.006;2022-08-01T05:52:17;3.40;;;1.92;;
31262;SDS011;17892;52.080;9.006;2022-08-01T05:54:43;2.45;;;1.45;;
31262;SDS011;17892;52.080;9.006;2022-08-01T05:57:08;2.17;;;1.60;;
31262;SDS011;17892;52.080;9.006;2022-08-01T05:59:34;1.98;;;1.33;;
31262;SDS011;17892;52.080;9.006;2022-08-01T06:02:00;2.85;;;1.67;;
31262;SDS011;17892;52.080;9.006;2022-08-01T06:04:26;1.95;;;1.40;;
31262;SDS011;17892;52.080;9.006;2022-08-01T06:06:51;2.25;;;1.38;;
31262;SDS011;17892;52.080;9.006;2022-08-01T06:09:17;1.90;;;1.35;;
31262;SDS011;17892;52.080;9.006;2022-08-01T06:11:43;3.05;;;1.90;;
31262;SDS011;17892;52.080;9.006;2022-08-01T06:14:08;5.30;;;2.35;;
31262;SDS011;17892;52.080;9.006;2022-08-01T06:16:34;2.63;;;1.95;;
31262;SDS011;17892;52.080;9.006;2022-08-01T06:19:00;2.10;;;1.55;;
31262;SDS011;17892;52.080;9.006;2022-08-01T06:21:25;2.25;;;1.65;;
31262;SDS011;17892;52.080;9.006;2022-08-01T06:23:51;2.67;;;1.58;;
31262;SDS011;17892;52.080;9.006;2022-08-01T06:26:17;1.70;;;1.17;;
31262;SDS011;17892;52.080;9.006;2022-08-01T06:28:44;1.70;;;1.10;;
31262;SDS011;17892;52.080;9.006;2022-08-01T06:31:09;2.53;;;1.48;;
31262;SDS011;17892;52.080;9.006;2022-08-01T06:33:37;1.50;;;1.05;;
31262;SDS011;17892;52.080;9.006;2022-08-01T06:36:03;2.75;;;1.70;;
31262;SDS011;17892;52.080;9.006;2022-08-01T06:38:29;1.65;;;1.20;;
31262;SDS011;17892;52.080;9.006;2022-08-01T06:40:54;1.77;;;1.10;;
31262;SDS011;17892;52.080;9.006;2022-08-01T06:43:20;2.17;;;1.25;;
31262;SDS011;17892;52.080;9.006;2022-08-01T06:45:46;2.00;;;1.48;;
31262;SDS011;17892;52.080;9.006;2022-08-01T06:48:12;2.00;;;1.52;;
31262;SDS011;17892;52.080;9.006;2022-08-01T06:50:37;2.25;;;1.33;;
31262;SDS011;17892;52.080;9.006;2022-08-01T06:53:03;2.92;;;1.20;;
31262;SDS011;17892;52.080;9.006;2022-08-01T06:55:29;1.92;;;1.55;;
31262;SDS011;17892;52.080;9.006;2022-08-01T06:57:55;2.22;;;1.25;;
31262;SDS011;17892;52.080;9.006;2022-08-01T07:00:21;1.65;;;1.10;;
31262;SDS011;17892;52.080;9.006;2022-08-01T07:02:49;2.67;;;1.67;;
31262;SDS011;17892;52.080;9.006;2022-08-01T07:05:16;1.73;;;1.35;;
31262;SDS011;17892;52.080;9.006;2022-08-01T07:07:42;1.25;;;0.95;;
31262;SDS011;17892;52.080;9.006;2022-08-01T07:10:08;1.65;;;0.90;;
31262;SDS011;17892;52.080;9.006;2022-08-01T07:12:34;1.52;;;0.73;;
31262;SDS011;17892;52.080;9.006;2022-08-01T07:15:05;1.17;;;0.80;;
31262;SDS011;17892;52.080;9.006;2022-08-01T07:17:35;1.92;;;0.55;;
31262;SDS011;17892;52.080;9.006;2022-08-01T07:20:06;1.15;;;0.70;;
31262;SDS011;17892;52.080;9.006;2022-08-01T07:22:37;1.38;;;0.80;;
31262;SDS011;17892;52.080;9.006;2022-08-01T07:25:04;1.73;;;1.02;;
31262;SDS011;17892;52.080;9.006;2022-08-01T07:27:31;1.15;;;0.73;;
31262;SDS011;17892;52.080;9.006;2022-08-01T07:29:57;1.38;;;0.88;;
31262;SDS011;17892;52.080;9.006;2022-08-01T07:32:23;1.70;;;0.52;;
31262;SDS011;17892;52.080;9.006;2022-08-01T07:34:49;1.42;;;0.60;;
31262;SDS011;17892;52.080;9.006;2022-08-01T07:37:14;0.55;;;0.50;;
31262;SDS011;17892;52.080;9.006;2022-08-01T07:39:40;1.67;;;1.20;;
31262;SDS011;17892;52.080;9.006;2022-08-01T07:42:06;1.83;;;0.98;;
31262;SDS011;17892;52.080;9.006;2022-08-01T07:44:31;1.10;;;0.80;;
31262;SDS011;17892;52.080;9.006;2022-08-01T07:46:57;1.15;;;0.55;;
31262;SDS011;17892;52.080;9.006;2022-08-01T07:49:23;1.50;;;0.60;;
31262;SDS011;17892;52.080;9.006;2022-08-01T07:51:49;1.27;;;0.70;;
31262;SDS011;17892;52.080;9.006;2022-08-01T07:54:14;0.98;;;0.75;;
31262;SDS011;17892;52.080;9.006;2022-08-01T07:56:40;1.20;;;0.77;;
31262;SDS011;17892;52.080;9.006;2022-08-01T07:59:06;1.40;;;0.60;;
31262;SDS011;17892;52.080;9.006;2022-08-01T08:01:31;1.10;;;0.63;;
31262;SDS011;17892;52.080;9.006;2022-08-01T08:03:57;1.00;;;0.57;;
31262;SDS011;17892;52.080;9.006;2022-08-01T08:06:23;1.90;;;0.60;;
31262;SDS011;17892;52.080;9.006;2022-08-01T08:08:49;0.88;;;0.60;;
31262;SDS011;17892;52.080;9.006;2022-08-01T08:11:14;0.80;;;0.60;;
31262;SDS011;17892;52.080;9.006;2022-08-01T08:13:40;0.95;;;0.68;;
31262;SDS011;17892;52.080;9.006;2022-08-01T08:16:06;0.70;;;0.40;;
31262;SDS011;17892;52.080;9.006;2022-08-01T08:18:31;2.05;;;1.17;;
31262;SDS011;17892;52.080;9.006;2022-08-01T08:20:57;1.13;;;0.73;;
31262;SDS011;17892;52.080;9.006;2022-08-01T08:23:23;0.93;;;0.50;;
31262;SDS011;17892;52.080;9.006;2022-08-01T08:26:07;0.32;;;0.30;;
31262;SDS011;17892;52.080;9.006;2022-08-01T08:28:33;0.35;;;0.20;;
31262;SDS011;17892;52.080;9.006;2022-08-01T08:30:58;1.08;;;0.77;;
31262;SDS011;17892;52.080;9.006;2022-08-01T08:33:24;3.30;;;0.60;;
31262;SDS011;17892;52.080;9.006;2022-08-01T08:35:49;1.38;;;0.73;;
31262;SDS011;17892;52.080;9.006;2022-08-01T08:38:15;0.68;;;0.40;;
31262;SDS011;17892;52.080;9.006;2022-08-01T08:40:41;3.13;;;0.73;;
31262;SDS011;17892;52.080;9.006;2022-08-01T08:43:07;2.05;;;0.60;;
31262;SDS011;17892;52.080;9.006;2022-08-01T08:45:33;1.13;;;0.40;;
31262;SDS011;17892;52.080;9.006;2022-08-01T08:47:59;2.67;;;0.70;;
31262;SDS011;17892;52.080;9.006;2022-08-01T08:50:25;0.80;;;0.60;;
31262;SDS011;17892;52.080;9.006;2022-08-01T08:52:55;0.80;;;0.55;;
31262;SDS011;17892;52.080;9.006;2022-08-01T08:55:21;0.88;;;0.43;;
31262;SDS011;17892;52.080;9.006;2022-08-01T08:57:48;0.68;;;0.60;;
31262;SDS011;17892;52.080;9.006;2022-08-01T09:00:14;0.60;;;0.47;;
31262;SDS011;17892;52.080;9.006;2022-08-01T09:02:44;0.68;;;0.50;;
31262;SDS011;17892;52.080;9.006;2022-08-01T09:05:12;2.67;;;0.70;;
31262;SDS011;17892;52.080;9.006;2022-08-01T09:07:38;1.38;;;0.95;;
31262;SDS011;17892;52.080;9.006;2022-08-01T09:10:04;1.25;;;0.80;;
31262;SDS011;17892;52.080;9.006;2022-08-01T09:12:30;1.80;;;0.85;;
31262;SDS011;17892;52.080;9.006;2022-08-01T09:14:56;4.63;;;1.50;;
31262;SDS011;17892;52.080;9.006;2022-08-01T09:17:22;1.30;;;0.90;;
31262;SDS011;17892;52.080;9.006;2022-08-01T09:19:52;0.63;;;0.60;;
31262;SDS011;17892;52.080;9.006;2022-08-01T09:22:21;1.40;;;0.87;;
31262;SDS011;17892;52.080;9.006;2022-08-01T09:27:35;2.45;;;0.93;;
31262;SDS011;17892;52.080;9.006;2022-08-01T09:32:36;0.80;;;0.50;;
31262;SDS011;17892;52.080;9.006;2022-08-01T09:35:30;0.70;;;0.47;;
31262;SDS011;17892;52.080;9.006;2022-08-01T09:38:20;1.00;;;0.50;;
31262;SDS011;17892;52.080;9.006;2022-08-01T09:40:55;1.17;;;0.60;;
31262;SDS011;17892;52.080;9.006;2022-08-01T09:43:26;1.45;;;0.52;;
31262;SDS011;17892;52.080;9.006;2022-08-01T09:45:54;2.28;;;0.52;;
31262;SDS011;17892;52.080;9.006;2022-08-01T09:48:21;0.30;;;0.20;;
31262;SDS011;17892;52.080;9.006;2022-08-01T09:50:48;0.57;;;0.30;;
31262;SDS011;17892;52.080;9.006;2022-08-01T09:53:16;0.70;;;0.40;;
31262;SDS011;17892;52.080;9.006;2022-08-01T09:55:43;0.38;;;0.20;;
31262;SDS011;17892;52.080;9.006;2022-08-01T09:58:11;0.75;;;0.50;;
31262;SDS011;17892;52.080;9.006;2022-08-01T10:00:38;0.55;;;0.20;;
31262;SDS011;17892;52.080;9.006;2022-08-01T10:03:26;0.22;;;0.20;;
31262;SDS011;17892;52.080;9.006;2022-08-01T10:05:52;0.20;;;0.10;;
31262;SDS011;17892;52.080;9.006;2022-08-01T10:08:22;0.40;;;0.20;;
31262;SDS011;17892;52.080;9.006;2022-08-01T10:11:09;0.40;;;0.30;;
31262;SDS011;17892;52.080;9.006;2022-08-01T10:13:37;0.63;;;0.40;;
31262;SDS011;17892;52.080;9.006;2022-08-01T10:16:03;0.30;;;0.22;;
31262;SDS011;17892;52.080;9.006;2022-08-01T10:18:32;0.55;;;0.22;;
31262;SDS011;17892;52.080;9.006;2022-08-01T10:21:00;0.52;;;0.22;;
31262;SDS011;17892;52.080;9.006;2022-08-01T10:23:29;0.28;;;0.20;;
31262;SDS011;17892;52.080;9.006;2022-08-01T10:26:00;0.73;;;0.50;;
31262;SDS011;17892;52.080;9.006;2022-08-01T10:28:26;0.77;;;0.30;;
31262;SDS011;17892;52.080;9.006;2022-08-01T10:30:56;3.55;;;0.45;;
31262;SDS011;17892;52.080;9.006;2022-08-01T10:33:23;1.70;;;0.22;;
31262;SDS011;17892;52.080;9.006;2022-08-01T10:35:49;1.42;;;0.75;;
31262;SDS011;17892;52.080;9.006;2022-08-01T10:38:16;1.17;;;0.70;;
31262;SDS011;17892;52.080;9.006;2022-08-01T10:40:42;1.80;;;0.50;;
31262;SDS011;17892;52.080;9.006;2022-08-01T10:43:09;1.67;;;0.85;;
31262;SDS011;17892;52.080;9.006;2022-08-01T10:45:36;1.48;;;0.60;;
31262;SDS011;17892;52.080;9.006;2022-08-01T10:48:22;1.70;;;0.75;;
31262;SDS011;17892;52.080;9.006;2022-08-01T10:50:59;0.65;;;0.45;;
31262;SDS011;17892;52.080;9.006;2022-08-01T10:53:29;2.55;;;0.52;;
31262;SDS011;17892;52.080;9.006;2022-08-01T10:55:59;0.70;;;0.70;;
31262;SDS011;17892;52.080;9.006;2022-08-01T11:01:23;1.20;;;1.02;;
31262;SDS011;17892;52.080;9.006;2022-08-01T11:06:21;0.65;;;0.57;;
31262;SDS011;17892;52.080;9.006;2022-08-01T11:09:23;0.95;;;0.63;;
31262;SDS011;17892;52.080;9.006;2022-08-01T11:12:11;1.17;;;0.70;;
31262;SDS011;17892;52.080;9.006;2022-08-01T11:28:35;1.77;;;0.88;;
31262;SDS011;17892;52.080;9.006;2022-08-01T11:38:36;1.30;;;0.55;;
31262;SDS011;17892;52.080;9.006;2022-08-01T11:43:58;1.30;;;0.93;;
31262;SDS011;17892;52.080;9.006;2022-08-01T11:49:45;1.23;;;0.55;;
31262;SDS011;17892;52.080;9.006;2022-08-01T11:57:43;0.85;;;0.80;;
31262;SDS011;17892;52.080;9.006;2022-08-01T12:00:13;2.67;;;0.70;;
31262;SDS011;17892;52.080;9.006;2022-08-01T12:02:43;1.67;;;0.57;;
31262;SDS011;17892;52.080;9.006;2022-08-01T12:05:11;0.90;;;0.60;;
31262;SDS011;17892;52.080;9.006;2022-08-01T12:07:42;1.45;;;0.80;;
31262;SDS011;17892;52.080;9.006;2022-08-01T12:12:51;1.07;;;0.70;;
31262;SDS011;17892;52.080;9.006;2022-08-01T12:15:18;1.00;;;0.47;;
31262;SDS011;17892;52.080;9.006;2022-08-01T12:17:48;2.20;;;0.60;;
31262;SDS011;17892;52.080;9.006;2022-08-01T12:20:20;0.93;;;0.63;;
31262;SDS011;17892;52.080;9.006;2022-08-01T12:22:47;3.67;;;0.82;;
31262;SDS011;17892;52.080;9.006;2022-08-01T12:25:20;0.73;;;0.50;;
31262;SDS011;17892;52.080;9.006;2022-08-01T12:27:47;4.60;;;0.98;;
31262;SDS011;17892;52.080;9.006;2022-08-01T12:30:15;1.23;;;0.70;;
31262;SDS011;17892;52.080;9.006;2022-08-01T12:32:47;3.05;;;0.60;;
31262;SDS011;17892;52.080;9.006;2022-08-01T12:35:16;1.58;;;0.70;;
31262;SDS011;17892;52.080;9.006;2022-08-01T12:38:01;2.17;;;0.93;;
31262;SDS011;17892;52.080;9.006;2022-08-01T12:40:34;3.63;;;0.95;;
31262;SDS011;17892;52.080;9.006;2022-08-01T12:43:04;1.25;;;0.63;;
31262;SDS011;17892;52.080;9.006;2022-08-01T12:45:39;1.00;;;0.50;;
31262;SDS011;17892;52.080;9.006;2022-08-01T12:48:12;0.68;;;0.38;;
31262;SDS011;17892;52.080;9.006;2022-08-01T12:50:58;1.92;;;0.70;;
31262;SDS011;17892;52.080;9.006;2022-08-01T12:53:26;1.08;;;0.65;;
31262;SDS011;17892;52.080;9.006;2022-08-01T12:55:53;3.95;;;0.90;;
31262;SDS011;17892;52.080;9.006;2022-08-01T12:58:20;1.70;;;0.80;;
31262;SDS011;17892;52.080;9.006;2022-08-01T13:00:47;3.15;;;1.60;;
31262;SDS011;17892;52.080;9.006;2022-08-01T13:03:16;0.77;;;0.47;;
31262;SDS011;17892;52.080;9.006;2022-08-01T13:05:44;1.10;;;0.57;;
31262;SDS011;17892;52.080;9.006;2022-08-01T13:11:02;1.45;;;0.60;;
31262;SDS011;17892;52.080;9.006;2022-08-01T13:13:38;2.63;;;0.90;;
31262;SDS011;17892;52.080;9.006;2022-08-01T13:16:08;1.90;;;1.02;;
31262;SDS011;17892;52.080;9.006;2022-08-01T13:18:36;1.38;;;0.80;;
31262;SDS011;17892;52.080;9.006;2022-08-01T13:21:15;1.48;;;0.90;;
31262;SDS011;17892;52.080;9.006;2022-08-01T13:26:39;1.55;;;0.80;;
31262;SDS011;17892;52.080;9.006;2022-08-01T13:29:14;1.15;;;0.82;;
31262;SDS011;17892;52.080;9.006;2022-08-01T13:31:53;2.50;;;1.23;;
31262;SDS011;17892;52.080;9.006;2022-08-01T13:34:29;2.50;;;1.02;;
31262;SDS011;17892;52.080;9.006;2022-08-01T13:36:58;2.13;;;0.60;;
31262;SDS011;17892;52.080;9.006;2022-08-01T13:39:26;3.13;;;0.88;;
31262;SDS011;17892;52.080;9.006;2022-08-01T13:42:06;2.13;;;1.20;;
31262;SDS011;17892;52.080;9.006;2022-08-01T13:44:33;1.90;;;1.05;;
31262;SDS011;17892;52.080;9.006;2022-08-01T13:46:59;2.80;;;1.00;;
31262;SDS011;17892;52.080;9.006;2022-08-01T13:49:25;2.60;;;1.13;;
31262;SDS011;17892;52.080;9.006;2022-08-01T13:51:50;1.58;;;0.82;;
31262;SDS011;17892;52.080;9.006;2022-08-01T13:54:16;2.17;;;1.08;;
31262;SDS011;17892;52.080;9.006;2022-08-01T13:56:43;2.58;;;1.20;;
31262;SDS011;17892;52.080;9.006;2022-08-01T13:59:09;6.80;;;2.05;;
31262;SDS011;17892;52.080;9.006;2022-08-01T14:01:34;2.05;;;1.05;;
31262;SDS011;17892;52.080;9.006;2022-08-01T14:04:01;2.03;;;1.08;;
31262;SDS011;17892;52.080;9.006;2022-08-01T14:06:28;2.78;;;1.20;;
31262;SDS011;17892;52.080;9.006;2022-08-01T14:08:54;1.40;;;1.00;;
31262;SDS011;17892;52.080;9.006;2022-08-01T14:11:20;1.10;;;0.90;;
31262;SDS011;17892;52.080;9.006;2022-08-01T14:13:46;0.65;;;0.47;;
31262;SDS011;17892;52.080;9.006;2022-08-01T14:16:12;2.00;;;1.20;;
31262;SDS011;17892;52.080;9.006;2022-08-01T14:18:37;1.00;;;0.52;;
31262;SDS011;17892;52.080;9.006;2022-08-01T14:21:03;2.20;;;1.00;;
31262;SDS011;17892;52.080;9.006;2022-08-01T14:23:29;1.42;;;0.88;;
31262;SDS011;17892;52.080;9.006;2022-08-01T14:25:54;1.48;;;0.70;;
31262;SDS011;17892;52.080;9.006;2022-08-01T14:28:20;1.17;;;0.70;;
31262;SDS011;17892;52.080;9.006;2022-08-01T14:30:46;2.08;;;0.65;;
31262;SDS011;17892;52.080;9.006;2022-08-01T14:33:12;3.55;;;1.00;;
31262;SDS011;17892;52.080;9.006;2022-08-01T14:35:38;1.60;;;0.70;;
31262;SDS011;17892;52.080;9.006;2022-08-01T14:38:05;2.08;;;0.90;;
31262;SDS011;17892;52.080;9.006;2022-08-01T14:40:31;1.67;;;1.13;;
31262;SDS011;17892;52.080;9.006;2022-08-01T14:42:57;1.83;;;0.80;;
31262;SDS011;17892;52.080;9.006;2022-08-01T14:45:22;2.05;;;0.70;;
31262;SDS011;17892;52.080;9.006;2022-08-01T14:47:48;2.53;;;0.80;;
31262;SDS011;17892;52.080;9.006;2022-08-01T14:50:14;1.63;;;0.70;;
31262;SDS011;17892;52.080;9.006;2022-08-01T14:52:41;1.85;;;0.80;;
31262;SDS011;17892;52.080;9.006;2022-08-01T14:55:08;3.45;;;0.77;;
31262;SDS011;17892;52.080;9.006;2022-08-01T14:57:37;1.45;;;1.17;;
31262;SDS011;17892;52.080;9.006;2022-08-01T15:00:05;4.35;;;1.30;;
31262;SDS011;17892;52.080;9.006;2022-08-01T15:02:37;1.42;;;0.57;;
31262;SDS011;17892;52.080;9.006;2022-08-01T15:05:04;6.03;;;1.00;;
31262;SDS011;17892;52.080;9.006;2022-08-01T15:07:30;1.98;;;0.90;;
31262;SDS011;17892;52.080;9.006;2022-08-01T15:09:56;3.97;;;0.90;;
31262;SDS011;17892;52.080;9.006;2022-08-01T15:12:22;4.05;;;1.20;;
31262;SDS011;17892;52.080;9.006;2022-08-01T15:14:48;2.85;;;1.00;;
31262;SDS011;17892;52.080;9.006;2022-08-01T15:17:14;2.80;;;1.20;;
31262;SDS011;17892;52.080;9.006;2022-08-01T15:19:44;2.88;;;1.02;;
31262;SDS011;17892;52.080;9.006;2022-08-01T15:22:11;2.20;;;1.00;;
31262;SDS011;17892;52.080;9.006;2022-08-01T15:24:37;3.33;;;0.85;;
31262;SDS011;17892;52.080;9.006;2022-08-01T15:27:04;5.13;;;1.10;;
31262;SDS011;17892;52.080;9.006;2022-08-01T15:29:30;1.35;;;0.75;;
31262;SDS011;17892;52.080;9.006;2022-08-01T15:31:56;5.50;;;1.42;;
31262;SDS011;17892;52.080;9.006;2022-08-01T15:34:23;2.47;;;1.13;;
31262;SDS011;17892;52.080;9.006;2022-08-01T15:36:50;4.35;;;1.15;;
31262;SDS011;17892;52.080;9.006;2022-08-01T15:39:16;1.40;;;1.08;;
31262;SDS011;17892;52.080;9.006;2022-08-01T15:41:42;4.60;;;1.38;;
31262;SDS011;17892;52.080;9.006;2022-08-01T15:44:07;3.65;;;0.98;;
31262;SDS011;17892;52.080;9.006;2022-08-01T15:46:33;3.13;;;1.20;;
31262;SDS011;17892;52.080;9.006;2022-08-01T15:49:03;2.55;;;1.13;;
31262;SDS011;17892;52.080;9.006;2022-08-01T15:51:30;3.75;;;1.48;;
31262;SDS011;17892;52.080;9.006;2022-08-01T15:53:56;2.03;;;0.82;;
31262;SDS011;17892;52.080;9.006;2022-08-01T15:56:22;7.40;;;1.73;;